createdAt,value
2018-10-03T00:03:36.713Z,10.90
2018-10-03T00:07:40.394Z,10.90
2018-10-03T00:11:44.127Z,10.80
2018-10-03T00:15:47.929Z,10.80
2018-10-03T00:19:51.672Z,10.80
2018-10-03T00:23:55.377Z,10.80
2018-10-03T00:27:59.065Z,10.80
2018-10-03T00:32:02.796Z,10.70
2018-10-03T00:36:09.389Z,10.70
2018-10-03T00:40:13.150Z,10.80
2018-10-03T00:44:16.866Z,10.70
2018-10-03T00:48:20.662Z,10.70
2018-10-03T00:52:24.372Z,10.70
2018-10-03T00:56:28.326Z,10.70
2018-10-03T01:00:32.109Z,10.70
2018-10-03T01:04:35.818Z,10.70
2018-10-03T01:08:39.638Z,10.60
2018-10-03T01:12:44.173Z,10.70
2018-10-03T01:16:47.905Z,10.70
2018-10-03T01:20:51.670Z,10.60
2018-10-03T01:24:55.464Z,10.60
2018-10-03T01:28:59.162Z,10.60
2018-10-03T01:33:03.045Z,10.60
2018-10-03T01:37:06.794Z,10.60
2018-10-03T01:41:10.525Z,10.60
2018-10-03T01:45:14.275Z,10.60
2018-10-03T01:49:17.962Z,10.60
2018-10-03T01:53:21.681Z,10.70
2018-10-03T01:57:25.457Z,10.70
2018-10-03T02:01:29.181Z,10.70
2018-10-03T02:05:32.891Z,10.70
2018-10-03T02:09:36.613Z,10.70
2018-10-03T02:13:40.291Z,10.70
2018-10-03T02:17:44.033Z,10.70
2018-10-03T02:21:47.757Z,10.70
2018-10-03T02:25:51.473Z,10.70
2018-10-03T02:29:55.233Z,10.70
2018-10-03T02:33:58.945Z,10.70
2018-10-03T02:38:02.670Z,10.70
2018-10-03T02:42:06.432Z,10.70
2018-10-03T02:46:10.157Z,10.70
2018-10-03T02:50:13.876Z,10.70
2018-10-03T02:54:17.722Z,10.70
2018-10-03T02:58:21.425Z,10.70
2018-10-03T03:02:25.132Z,10.70
2018-10-03T03:06:28.892Z,10.70
2018-10-03T03:10:32.652Z,10.80
2018-10-03T03:14:36.635Z,10.80
2018-10-03T03:18:40.353Z,10.80
2018-10-03T03:22:44.080Z,10.80
2018-10-03T03:26:47.796Z,10.90
2018-10-03T03:30:51.552Z,10.90
2018-10-03T03:34:55.256Z,11.00
2018-10-03T03:38:58.960Z,11.00
2018-10-03T03:43:02.661Z,11.00
2018-10-03T03:47:06.455Z,11.00
2018-10-03T03:51:10.144Z,11.00
2018-10-03T03:55:13.865Z,11.00
2018-10-03T03:59:17.752Z,11.00
2018-10-03T04:03:21.463Z,11.00
2018-10-03T04:07:25.179Z,11.00
2018-10-03T04:11:28.954Z,11.10
2018-10-03T04:15:32.659Z,11.10
2018-10-03T04:19:36.365Z,11.10
2018-10-03T04:23:40.078Z,11.10
2018-10-03T04:27:43.814Z,11.20
2018-10-03T04:31:47.537Z,11.10
2018-10-03T04:35:51.379Z,11.20
2018-10-03T04:39:55.162Z,11.10
2018-10-03T04:43:58.868Z,11.10
2018-10-03T04:48:03.673Z,11.20
2018-10-03T04:52:07.387Z,11.20
2018-10-03T04:56:11.076Z,11.20
2018-10-03T05:00:14.886Z,11.20
2018-10-03T05:04:18.644Z,11.20
2018-10-03T05:08:22.352Z,11.20
2018-10-03T05:12:26.062Z,11.20
2018-10-03T05:16:29.797Z,11.20
2018-10-03T05:20:33.569Z,11.20
2018-10-03T05:24:37.309Z,11.20
2018-10-03T05:28:41.024Z,11.20
2018-10-03T05:32:44.778Z,11.20
2018-10-03T05:36:48.457Z,11.30
2018-10-03T05:40:52.227Z,11.30
2018-10-03T05:44:55.961Z,11.20
2018-10-03T05:48:59.665Z,11.30
2018-10-03T05:53:03.390Z,11.30
2018-10-03T05:57:07.080Z,11.20
2018-10-03T06:01:10.881Z,11.20
2018-10-03T06:05:14.594Z,11.20
2018-10-03T06:09:18.432Z,11.20
2018-10-03T06:13:22.178Z,11.20
2018-10-03T06:17:25.883Z,11.20
2018-10-03T06:23:40.740Z,11.10
2018-10-03T06:28:03.580Z,11.40
2018-10-03T06:32:07.359Z,11.30
2018-10-03T06:36:11.128Z,11.30
2018-10-03T06:40:14.868Z,11.30
2018-10-03T06:44:18.602Z,11.30
2018-10-03T06:48:22.375Z,11.30
2018-10-03T06:52:26.095Z,11.30
2018-10-03T06:56:29.886Z,11.30
2018-10-03T07:00:33.595Z,11.40
2018-10-03T07:04:37.288Z,11.40
2018-10-03T07:08:41.249Z,11.40
2018-10-03T07:12:44.994Z,11.50
2018-10-03T07:16:48.705Z,11.50
2018-10-03T07:20:52.520Z,11.60
2018-10-03T07:24:56.237Z,11.60
2018-10-03T07:28:59.933Z,11.70
2018-10-03T07:33:03.683Z,11.70
2018-10-03T07:37:07.379Z,11.80
2018-10-03T07:41:11.161Z,11.80
2018-10-03T07:45:14.942Z,11.80
2018-10-03T07:49:18.627Z,11.80
2018-10-03T07:53:22.339Z,11.80
2018-10-03T07:57:26.236Z,11.90
2018-10-03T08:01:29.958Z,12.00
2018-10-03T08:05:33.644Z,12.00
2018-10-03T08:09:37.463Z,12.20
2018-10-03T08:13:41.159Z,12.20
2018-10-03T08:17:44.873Z,12.30
2018-10-03T08:21:48.655Z,12.30
2018-10-03T08:25:52.368Z,12.40
2018-10-03T08:29:56.049Z,12.50
2018-10-03T08:33:59.797Z,12.50
2018-10-03T08:38:03.607Z,12.60
2018-10-03T08:42:07.378Z,12.60
2018-10-03T08:46:11.103Z,12.70
2018-10-03T08:50:14.868Z,12.70
2018-10-03T08:54:18.597Z,12.80
2018-10-03T08:58:22.429Z,12.80
2018-10-03T09:02:26.147Z,12.80
2018-10-03T09:06:29.854Z,12.80
2018-10-03T09:10:33.618Z,12.90
2018-10-03T09:14:37.488Z,12.90
2018-10-03T09:18:41.291Z,13.00
2018-10-03T09:22:45.056Z,13.10
2018-10-03T09:26:48.772Z,13.10
2018-10-03T09:30:52.536Z,13.20
2018-10-03T09:34:56.309Z,13.10
2018-10-03T09:39:00.044Z,13.10
2018-10-03T09:43:03.759Z,13.00
2018-10-03T09:47:07.529Z,13.00
2018-10-03T09:51:11.401Z,13.10
2018-10-03T09:55:15.152Z,13.10
2018-10-03T09:59:18.857Z,13.20
2018-10-03T10:03:22.871Z,13.30
2018-10-03T10:07:27.032Z,13.30
2018-10-03T10:11:30.830Z,13.40
2018-10-03T10:15:34.501Z,13.40
2018-10-03T10:19:38.291Z,13.50
2018-10-03T10:23:42.012Z,13.50
2018-10-03T10:27:45.734Z,13.50
2018-10-03T10:31:49.467Z,13.60
2018-10-03T10:35:53.223Z,13.70
2018-10-03T10:39:57.055Z,13.70
2018-10-03T10:44:01.440Z,13.70
2018-10-03T10:48:05.141Z,13.80
2018-10-03T10:52:08.847Z,13.80
2018-10-03T10:56:12.562Z,13.90
2018-10-03T11:00:16.293Z,14.00
2018-10-03T11:04:20.246Z,14.00
2018-10-03T11:08:23.934Z,14.00
2018-10-03T11:12:27.662Z,13.90
2018-10-03T11:16:37.838Z,14.00
2018-10-03T11:20:41.542Z,14.00
2018-10-03T11:24:45.465Z,14.00
2018-10-03T11:28:49.043Z,14.00
2018-10-03T11:32:52.781Z,14.10
2018-10-03T11:36:56.528Z,14.20
2018-10-03T11:41:00.253Z,14.20
2018-10-03T11:45:04.058Z,14.30
2018-10-03T11:49:07.752Z,14.40
2018-10-03T11:53:11.458Z,14.50
2018-10-03T11:57:15.172Z,14.50
2018-10-03T12:01:18.908Z,14.60
2018-10-03T12:05:22.624Z,14.70
2018-10-03T12:09:26.369Z,14.80
2018-10-03T12:13:30.165Z,14.90
2018-10-03T12:17:33.871Z,14.90
2018-10-03T12:21:37.606Z,14.90
2018-10-03T12:25:41.303Z,15.00
2018-10-03T12:29:44.989Z,15.00
2018-10-03T12:33:48.807Z,15.10
2018-10-03T12:37:52.521Z,15.10
2018-10-03T12:41:56.245Z,15.10
2018-10-03T12:45:59.966Z,15.10
2018-10-03T12:50:03.693Z,15.20
2018-10-03T12:54:07.661Z,15.20
2018-10-03T12:58:11.377Z,15.10
2018-10-03T13:02:15.111Z,15.10
2018-10-03T13:06:18.864Z,15.20
2018-10-03T13:10:22.701Z,15.20
2018-10-03T13:14:26.430Z,15.10
2018-10-03T13:18:30.192Z,15.20
2018-10-03T13:22:33.896Z,15.40
2018-10-03T13:26:37.720Z,15.50
2018-10-03T13:30:41.470Z,15.40
2018-10-03T13:34:45.204Z,15.50
2018-10-03T13:38:49.002Z,15.50
2018-10-03T13:42:52.747Z,15.50
2018-10-03T13:46:56.508Z,15.60
2018-10-03T13:51:00.303Z,15.70
2018-10-03T13:55:04.162Z,15.80
2018-10-03T13:59:07.890Z,15.80
2018-10-03T14:03:11.656Z,15.80
2018-10-03T14:07:15.332Z,15.80
2018-10-03T14:11:19.049Z,15.80
2018-10-03T14:15:22.813Z,15.70
2018-10-03T14:19:26.519Z,15.70
2018-10-03T14:23:30.208Z,15.70
2018-10-03T14:27:33.897Z,15.70
2018-10-03T14:31:37.606Z,15.60
2018-10-03T14:35:41.377Z,15.50
2018-10-03T14:39:45.141Z,15.40
2018-10-03T14:43:48.875Z,15.30
2018-10-03T14:47:52.597Z,15.20
2018-10-03T14:51:56.358Z,15.10
2018-10-03T14:56:00.069Z,15.10
2018-10-03T15:00:03.854Z,15.10
2018-10-03T15:04:07.705Z,15.20
2018-10-03T15:08:11.386Z,15.40
2018-10-03T15:12:15.085Z,15.60
2018-10-03T15:16:18.809Z,15.80
2018-10-03T15:20:22.577Z,15.70
2018-10-03T15:24:26.284Z,15.70
2018-10-03T15:28:29.955Z,15.60
2018-10-03T15:32:33.651Z,15.50
2018-10-03T15:36:37.461Z,15.50
2018-10-03T15:40:41.217Z,15.40
2018-10-03T15:44:45.011Z,15.30
2018-10-03T15:48:48.740Z,15.30
2018-10-03T15:52:52.461Z,15.10
2018-10-03T15:56:56.236Z,15.10
2018-10-03T16:01:00.047Z,15.00
2018-10-03T16:05:03.826Z,14.90
2018-10-03T16:09:08.047Z,14.90
2018-10-03T16:13:11.784Z,14.80
2018-10-03T16:17:15.485Z,14.80
2018-10-03T16:21:19.197Z,14.80
2018-10-03T16:25:22.923Z,14.80
2018-10-03T16:29:26.581Z,14.80
2018-10-03T16:33:30.393Z,14.80
2018-10-03T16:37:34.145Z,14.80
2018-10-03T16:41:37.868Z,14.70
2018-10-03T16:45:41.589Z,14.60
2018-10-03T16:49:45.293Z,14.50
2018-10-03T16:53:49.014Z,14.50
2018-10-03T16:57:52.804Z,14.40
2018-10-03T17:01:56.525Z,14.40
2018-10-03T17:06:00.333Z,14.40
2018-10-03T17:10:04.947Z,14.30
2018-10-03T17:14:30.144Z,14.30
2018-10-03T17:18:33.873Z,14.30
2018-10-03T17:22:37.575Z,14.20
2018-10-03T17:26:41.349Z,14.20
2018-10-03T17:30:45.129Z,14.10
2018-10-03T17:34:48.852Z,14.10
2018-10-03T17:38:52.571Z,14.10
2018-10-03T17:42:56.336Z,14.00
2018-10-03T17:47:00.069Z,13.90
2018-10-03T17:51:03.856Z,13.90
2018-10-03T17:55:07.642Z,13.80
2018-10-03T17:59:11.775Z,13.80
2018-10-03T18:03:15.477Z,13.70
2018-10-03T18:07:19.191Z,13.60
2018-10-03T18:11:22.942Z,13.60
2018-10-03T18:15:26.713Z,13.50
2018-10-03T18:19:30.453Z,13.50
2018-10-03T18:23:34.520Z,13.50
2018-10-03T18:27:38.248Z,13.40
2018-10-03T18:31:42.006Z,13.40
2018-10-03T18:35:45.751Z,13.40
2018-10-03T18:39:49.462Z,13.30
2018-10-03T18:43:53.145Z,13.30
2018-10-03T18:47:56.871Z,13.30
2018-10-03T18:52:00.635Z,13.20
2018-10-03T18:56:04.413Z,13.10
2018-10-03T19:00:08.227Z,13.10
2018-10-03T19:04:11.885Z,13.00
2018-10-03T19:08:15.940Z,12.90
2018-10-03T19:12:19.776Z,12.80
2018-10-03T19:16:23.437Z,12.70
2018-10-03T19:20:27.157Z,12.60
2018-10-03T19:24:30.847Z,12.50
2018-10-03T19:28:34.580Z,12.40
2018-10-03T19:32:38.525Z,12.40
2018-10-03T19:36:42.267Z,12.30
2018-10-03T19:40:45.947Z,12.20
2018-10-03T19:44:49.669Z,12.10
2018-10-03T19:48:53.392Z,12.00
2018-10-03T19:52:57.118Z,11.90
2018-10-03T19:57:00.861Z,11.80
2018-10-03T20:01:04.560Z,11.80
2018-10-03T20:05:08.338Z,11.70
2018-10-03T20:09:12.042Z,11.60
2018-10-03T20:13:15.779Z,11.50
2018-10-03T20:17:19.529Z,11.50
2018-10-03T20:21:23.254Z,11.40
2018-10-03T20:25:26.933Z,11.30
2018-10-03T20:29:30.696Z,11.30
2018-10-03T20:33:34.495Z,11.20
2018-10-03T20:37:38.196Z,11.10
2018-10-03T20:41:41.994Z,11.10
2018-10-03T20:45:45.699Z,11.00
2018-10-03T20:49:49.423Z,11.00
2018-10-03T20:53:53.155Z,10.90
2018-10-03T20:57:56.878Z,10.80
2018-10-03T21:02:00.633Z,10.80
2018-10-03T21:06:04.411Z,10.70
2018-10-03T21:10:08.161Z,10.60
2018-10-03T21:14:11.948Z,10.60
2018-10-03T21:18:15.707Z,10.50
2018-10-03T21:22:19.412Z,10.50
2018-10-03T21:26:23.129Z,10.40
2018-10-03T21:30:26.998Z,10.40
2018-10-03T21:34:30.723Z,10.30
2018-10-03T21:38:34.528Z,10.20
2018-10-03T21:42:38.284Z,10.20
2018-10-03T21:46:42.016Z,10.10
2018-10-03T21:50:45.874Z,10.10
2018-10-03T21:54:49.604Z,10.10
2018-10-03T21:58:53.357Z,10.00
2018-10-03T22:02:57.081Z,10.00
2018-10-03T22:07:00.792Z,9.90
2018-10-03T22:11:04.514Z,9.80
2018-10-03T22:15:08.193Z,9.80
2018-10-03T22:19:11.984Z,9.80
2018-10-03T22:23:15.753Z,9.80
2018-10-03T22:27:19.493Z,9.70
2018-10-03T22:31:23.197Z,9.70
2018-10-03T22:35:26.937Z,9.70
2018-10-03T22:39:30.641Z,9.70
2018-10-03T22:43:34.538Z,9.70
2018-10-03T22:47:38.244Z,9.70
2018-10-03T22:51:41.985Z,9.70
2018-10-03T22:55:45.730Z,9.70
2018-10-03T22:59:49.444Z,9.80
2018-10-03T23:03:53.738Z,9.80
2018-10-03T23:07:57.436Z,9.90
2018-10-03T23:12:01.125Z,9.90
2018-10-03T23:16:04.849Z,9.90
2018-10-03T23:20:08.273Z,10.00
2018-10-03T23:24:11.989Z,10.00
2018-10-03T23:28:15.688Z,10.00
2018-10-03T23:32:19.353Z,10.10
2018-10-03T23:36:23.081Z,10.10
2018-10-03T23:40:26.798Z,10.10
2018-10-03T23:44:30.499Z,10.10
2018-10-03T23:48:34.194Z,10.20
2018-10-03T23:52:37.993Z,10.20
2018-10-03T23:56:41.686Z,10.20
